sensor_id;sensor_type;location;lat;lon;timestamp;P1;durP1;ratioP1;P2;durP2;ratioP2
66721;SDS011;53633;49.932;10.884;2022-08-03T00:01:21;5.97;;;2.22;;
66721;SDS011;53633;49.932;10.884;2022-08-03T00:03:48;5.50;;;2.17;;
66721;SDS011;53633;49.932;10.884;2022-08-03T00:06:15;9.80;;;2.55;;
66721;SDS011;53633;49.932;10.884;2022-08-03T00:08:42;5.57;;;2.30;;
66721;SDS011;53633;49.932;10.884;2022-08-03T00:11:10;6.80;;;2.50;;
66721;SDS011;53633;49.932;10.884;2022-08-03T00:13:36;5.38;;;2.35;;
66721;SDS011;53633;49.932;10.884;2022-08-03T00:16:03;6.30;;;2.60;;
66721;SDS011;53633;49.932;10.884;2022-08-03T00:18:33;5.40;;;2.55;;
66721;SDS011;53633;49.932;10.884;2022-08-03T00:21:00;5.30;;;2.45;;
66721;SDS011;53633;49.932;10.884;2022-08-03T00:23:27;8.32;;;2.50;;
66721;SDS011;53633;49.932;10.884;2022-08-03T00:26:15;6.10;;;2.50;;
66721;SDS011;53633;49.932;10.884;2022-08-03T00:28:42;5.67;;;2.60;;
66721;SDS011;53633;49.932;10.884;2022-08-03T00:31:08;6.93;;;2.70;;
66721;SDS011;53633;49.932;10.884;2022-08-03T00:33:38;6.38;;;2.50;;
66721;SDS011;53633;49.932;10.884;2022-08-03T00:36:25;5.25;;;2.40;;
66721;SDS011;53633;49.932;10.884;2022-08-03T00:38:51;4.53;;;2.10;;
66721;SDS011;53633;49.932;10.884;2022-08-03T00:41:19;5.70;;;2.23;;
66721;SDS011;53633;49.932;10.884;2022-08-03T00:43:46;5.10;;;2.17;;
66721;SDS011;53633;49.932;10.884;2022-08-03T00:46:13;5.30;;;2.35;;
66721;SDS011;53633;49.932;10.884;2022-08-03T00:48:46;6.95;;;2.30;;
66721;SDS011;53633;49.932;10.884;2022-08-03T00:51:13;7.40;;;2.17;;
66721;SDS011;53633;49.932;10.884;2022-08-03T00:53:40;6.77;;;2.17;;
66721;SDS011;53633;49.932;10.884;2022-08-03T00:56:07;5.82;;;2.13;;
66721;SDS011;53633;49.932;10.884;2022-08-03T00:58:35;5.40;;;2.30;;
66721;SDS011;53633;49.932;10.884;2022-08-03T01:01:02;5.82;;;2.42;;
66721;SDS011;53633;49.932;10.884;2022-08-03T01:03:29;5.22;;;2.50;;
66721;SDS011;53633;49.932;10.884;2022-08-03T01:05:57;5.90;;;2.33;;
66721;SDS011;53633;49.932;10.884;2022-08-03T01:08:30;6.95;;;2.40;;
66721;SDS011;53633;49.932;10.884;2022-08-03T01:11:09;5.53;;;2.35;;
66721;SDS011;53633;49.932;10.884;2022-08-03T01:13:46;6.70;;;2.40;;
66721;SDS011;53633;49.932;10.884;2022-08-03T01:16:31;7.03;;;2.90;;
66721;SDS011;53633;49.932;10.884;2022-08-03T01:19:08;5.23;;;2.60;;
66721;SDS011;53633;49.932;10.884;2022-08-03T01:21:47;5.10;;;2.38;;
66721;SDS011;53633;49.932;10.884;2022-08-03T01:24:30;9.20;;;2.60;;
66721;SDS011;53633;49.932;10.884;2022-08-03T01:27:06;5.38;;;2.42;;
66721;SDS011;53633;49.932;10.884;2022-08-03T01:32:33;5.33;;;2.50;;
66721;SDS011;53633;49.932;10.884;2022-08-03T01:35:25;5.65;;;2.67;;
66721;SDS011;53633;49.932;10.884;2022-08-03T01:37:55;5.22;;;2.60;;
66721;SDS011;53633;49.932;10.884;2022-08-03T01:40:25;5.28;;;2.47;;
66721;SDS011;53633;49.932;10.884;2022-08-03T01:42:53;7.15;;;2.90;;
66721;SDS011;53633;49.932;10.884;2022-08-03T01:45:23;5.40;;;2.20;;
66721;SDS011;53633;49.932;10.884;2022-08-03T01:47:51;6.55;;;2.53;;
66721;SDS011;53633;49.932;10.884;2022-08-03T01:50:20;4.72;;;2.13;;
66721;SDS011;53633;49.932;10.884;2022-08-03T01:52:49;8.57;;;2.50;;
66721;SDS011;53633;49.932;10.884;2022-08-03T01:55:18;5.60;;;2.20;;
66721;SDS011;53633;49.932;10.884;2022-08-03T01:57:46;5.00;;;2.30;;
66721;SDS011;53633;49.932;10.884;2022-08-03T02:00:33;5.28;;;2.40;;
66721;SDS011;53633;49.932;10.884;2022-08-03T02:03:01;5.43;;;2.38;;
66721;SDS011;53633;49.932;10.884;2022-08-03T02:05:31;8.18;;;2.50;;
66721;SDS011;53633;49.932;10.884;2022-08-03T02:07:58;5.38;;;2.28;;
66721;SDS011;53633;49.932;10.884;2022-08-03T02:10:27;4.90;;;2.30;;
66721;SDS011;53633;49.932;10.884;2022-08-03T02:13:00;5.70;;;2.38;;
66721;SDS011;53633;49.932;10.884;2022-08-03T02:15:30;6.35;;;2.40;;
66721;SDS011;53633;49.932;10.884;2022-08-03T02:18:01;4.55;;;2.03;;
66721;SDS011;53633;49.932;10.884;2022-08-03T02:20:30;5.70;;;2.65;;
66721;SDS011;53633;49.932;10.884;2022-08-03T02:22:58;6.33;;;2.70;;
66721;SDS011;53633;49.932;10.884;2022-08-03T02:25:25;5.28;;;2.28;;
66721;SDS011;53633;49.932;10.884;2022-08-03T02:27:54;5.85;;;2.47;;
66721;SDS011;53633;49.932;10.884;2022-08-03T02:30:26;6.05;;;2.30;;
66721;SDS011;53633;49.932;10.884;2022-08-03T02:32:57;6.13;;;2.30;;
66721;SDS011;53633;49.932;10.884;2022-08-03T02:35:25;5.47;;;2.50;;
66721;SDS011;53633;49.932;10.884;2022-08-03T02:37:55;5.85;;;2.38;;
66721;SDS011;53633;49.932;10.884;2022-08-03T02:40:26;7.60;;;2.70;;
66721;SDS011;53633;49.932;10.884;2022-08-03T02:42:54;5.82;;;2.38;;
66721;SDS011;53633;49.932;10.884;2022-08-03T02:45:24;6.40;;;2.45;;
66721;SDS011;53633;49.932;10.884;2022-08-03T02:47:54;5.30;;;2.53;;
66721;SDS011;53633;49.932;10.884;2022-08-03T02:50:26;6.82;;;2.60;;
66721;SDS011;53633;49.932;10.884;2022-08-03T02:52:54;6.30;;;2.70;;
66721;SDS011;53633;49.932;10.884;2022-08-03T02:55:23;5.07;;;2.40;;
66721;SDS011;53633;49.932;10.884;2022-08-03T02:57:52;5.78;;;2.50;;
66721;SDS011;53633;49.932;10.884;2022-08-03T03:00:20;6.50;;;2.50;;
66721;SDS011;53633;49.932;10.884;2022-08-03T03:02:54;7.07;;;2.40;;
66721;SDS011;53633;49.932;10.884;2022-08-03T03:05:23;8.13;;;3.05;;
66721;SDS011;53633;49.932;10.884;2022-08-03T03:08:11;5.93;;;2.55;;
66721;SDS011;53633;49.932;10.884;2022-08-03T03:10:46;5.75;;;2.70;;
66721;SDS011;53633;49.932;10.884;2022-08-03T03:13:13;5.60;;;2.63;;
66721;SDS011;53633;49.932;10.884;2022-08-03T03:15:40;5.72;;;2.45;;
66721;SDS011;53633;49.932;10.884;2022-08-03T03:18:09;8.35;;;3.17;;
66721;SDS011;53633;49.932;10.884;2022-08-03T03:20:36;9.93;;;3.20;;
66721;SDS011;53633;49.932;10.884;2022-08-03T03:23:05;7.38;;;2.88;;
66721;SDS011;53633;49.932;10.884;2022-08-03T03:25:35;7.30;;;2.83;;
66721;SDS011;53633;49.932;10.884;2022-08-03T03:28:03;7.68;;;2.95;;
66721;SDS011;53633;49.932;10.884;2022-08-03T03:30:32;8.15;;;2.95;;
66721;SDS011;53633;49.932;10.884;2022-08-03T03:32:59;6.22;;;3.05;;
66721;SDS011;53633;49.932;10.884;2022-08-03T03:35:26;7.03;;;3.45;;
66721;SDS011;53633;49.932;10.884;2022-08-03T03:37:53;6.13;;;2.77;;
66721;SDS011;53633;49.932;10.884;2022-08-03T03:40:20;6.40;;;2.88;;
66721;SDS011;53633;49.932;10.884;2022-08-03T03:42:50;6.63;;;3.55;;
66721;SDS011;53633;49.932;10.884;2022-08-03T03:45:17;7.15;;;2.90;;
66721;SDS011;53633;49.932;10.884;2022-08-03T03:47:45;6.82;;;3.10;;
66721;SDS011;53633;49.932;10.884;2022-08-03T03:50:12;7.37;;;3.37;;
66721;SDS011;53633;49.932;10.884;2022-08-03T03:52:42;7.57;;;2.92;;
66721;SDS011;53633;49.932;10.884;2022-08-03T03:55:09;9.25;;;3.17;;
66721;SDS011;53633;49.932;10.884;2022-08-03T03:57:40;7.80;;;3.00;;
66721;SDS011;53633;49.932;10.884;2022-08-03T04:00:09;9.27;;;2.90;;
66721;SDS011;53633;49.932;10.884;2022-08-03T04:02:37;8.73;;;3.30;;
66721;SDS011;53633;49.932;10.884;2022-08-03T04:05:04;10.38;;;3.20;;
66721;SDS011;53633;49.932;10.884;2022-08-03T04:10:21;10.10;;;3.20;;
66721;SDS011;53633;49.932;10.884;2022-08-03T04:12:50;7.88;;;3.10;;
66721;SDS011;53633;49.932;10.884;2022-08-03T04:15:19;7.10;;;2.83;;
66721;SDS011;53633;49.932;10.884;2022-08-03T04:17:49;5.72;;;2.90;;
66721;SDS011;53633;49.932;10.884;2022-08-03T04:20:18;6.18;;;3.10;;
66721;SDS011;53633;49.932;10.884;2022-08-03T04:22:53;6.82;;;3.08;;
66721;SDS011;53633;49.932;10.884;2022-08-03T04:25:22;7.15;;;3.22;;
66721;SDS011;53633;49.932;10.884;2022-08-03T04:27:54;7.57;;;3.10;;
66721;SDS011;53633;49.932;10.884;2022-08-03T04:30:44;7.82;;;2.72;;
66721;SDS011;53633;49.932;10.884;2022-08-03T04:33:14;9.98;;;3.55;;
66721;SDS011;53633;49.932;10.884;2022-08-03T04:35:43;7.63;;;3.83;;
66721;SDS011;53633;49.932;10.884;2022-08-03T04:38:27;7.68;;;2.90;;
66721;SDS011;53633;49.932;10.884;2022-08-03T04:40:56;8.30;;;3.40;;
66721;SDS011;53633;49.932;10.884;2022-08-03T04:43:24;6.32;;;2.90;;
66721;SDS011;53633;49.932;10.884;2022-08-03T04:45:53;10.85;;;3.25;;
66721;SDS011;53633;49.932;10.884;2022-08-03T04:48:20;8.05;;;2.97;;
66721;SDS011;53633;49.932;10.884;2022-08-03T04:50:48;8.77;;;3.10;;
66721;SDS011;53633;49.932;10.884;2022-08-03T04:53:14;8.47;;;3.23;;
66721;SDS011;53633;49.932;10.884;2022-08-03T04:55:42;6.57;;;3.05;;
66721;SDS011;53633;49.932;10.884;2022-08-03T04:58:08;8.23;;;3.00;;
66721;SDS011;53633;49.932;10.884;2022-08-03T05:00:35;9.88;;;2.65;;
66721;SDS011;53633;49.932;10.884;2022-08-03T05:03:03;7.82;;;3.10;;
66721;SDS011;53633;49.932;10.884;2022-08-03T05:05:49;8.57;;;2.97;;
66721;SDS011;53633;49.932;10.884;2022-08-03T05:08:16;9.32;;;3.30;;
66721;SDS011;53633;49.932;10.884;2022-08-03T05:10:53;6.43;;;2.97;;
66721;SDS011;53633;49.932;10.884;2022-08-03T05:13:20;6.47;;;3.38;;
66721;SDS011;53633;49.932;10.884;2022-08-03T05:15:46;6.90;;;3.47;;
66721;SDS011;53633;49.932;10.884;2022-08-03T05:18:14;8.63;;;3.30;;
66721;SDS011;53633;49.932;10.884;2022-08-03T05:20:41;6.40;;;3.10;;
66721;SDS011;53633;49.932;10.884;2022-08-03T05:23:08;8.70;;;3.35;;
66721;SDS011;53633;49.932;10.884;2022-08-03T05:25:34;8.20;;;3.53;;
66721;SDS011;53633;49.932;10.884;2022-08-03T05:28:02;7.63;;;3.17;;
66721;SDS011;53633;49.932;10.884;2022-08-03T05:30:29;8.93;;;3.60;;
66721;SDS011;53633;49.932;10.884;2022-08-03T05:32:59;8.82;;;3.50;;
66721;SDS011;53633;49.932;10.884;2022-08-03T05:35:28;6.93;;;3.22;;
66721;SDS011;53633;49.932;10.884;2022-08-03T05:38:14;6.35;;;3.15;;
66721;SDS011;53633;49.932;10.884;2022-08-03T05:40:59;6.72;;;3.38;;
66721;SDS011;53633;49.932;10.884;2022-08-03T05:43:45;6.07;;;3.70;;
66721;SDS011;53633;49.932;10.884;2022-08-03T05:46:12;8.48;;;3.33;;
66721;SDS011;53633;49.932;10.884;2022-08-03T05:48:39;7.88;;;3.38;;
66721;SDS011;53633;49.932;10.884;2022-08-03T05:51:07;6.07;;;3.00;;
66721;SDS011;53633;49.932;10.884;2022-08-03T05:53:34;7.32;;;3.33;;
66721;SDS011;53633;49.932;10.884;2022-08-03T05:56:01;10.00;;;4.07;;
66721;SDS011;53633;49.932;10.884;2022-08-03T05:58:40;9.57;;;3.53;;
66721;SDS011;53633;49.932;10.884;2022-08-03T06:01:06;6.20;;;3.53;;
66721;SDS011;53633;49.932;10.884;2022-08-03T06:03:33;5.80;;;3.40;;
66721;SDS011;53633;49.932;10.884;2022-08-03T06:06:00;5.40;;;3.42;;
66721;SDS011;53633;49.932;10.884;2022-08-03T06:08:28;7.60;;;3.33;;
66721;SDS011;53633;49.932;10.884;2022-08-03T06:10:57;5.80;;;3.80;;
66721;SDS011;53633;49.932;10.884;2022-08-03T06:13:23;5.80;;;3.80;;
66721;SDS011;53633;49.932;10.884;2022-08-03T06:15:50;6.72;;;3.78;;
66721;SDS011;53633;49.932;10.884;2022-08-03T06:18:17;7.20;;;3.63;;
66721;SDS011;53633;49.932;10.884;2022-08-03T06:20:43;5.70;;;3.83;;
66721;SDS011;53633;49.932;10.884;2022-08-03T06:23:12;6.60;;;3.80;;
66721;SDS011;53633;49.932;10.884;2022-08-03T06:25:44;8.02;;;3.97;;
66721;SDS011;53633;49.932;10.884;2022-08-03T06:28:11;6.25;;;3.60;;
66721;SDS011;53633;49.932;10.884;2022-08-03T06:30:58;8.65;;;3.70;;
66721;SDS011;53633;49.932;10.884;2022-08-03T06:33:24;6.30;;;4.00;;
66721;SDS011;53633;49.932;10.884;2022-08-03T06:36:11;7.32;;;3.95;;
66721;SDS011;53633;49.932;10.884;2022-08-03T06:38:38;7.38;;;3.60;;
66721;SDS011;53633;49.932;10.884;2022-08-03T06:41:06;7.95;;;3.20;;
66721;SDS011;53633;49.932;10.884;2022-08-03T06:43:33;8.10;;;3.42;;
66721;SDS011;53633;49.932;10.884;2022-08-03T06:46:01;6.17;;;3.30;;
66721;SDS011;53633;49.932;10.884;2022-08-03T06:48:28;5.22;;;2.90;;
66721;SDS011;53633;49.932;10.884;2022-08-03T06:50:54;5.20;;;3.10;;
66721;SDS011;53633;49.932;10.884;2022-08-03T06:53:21;4.72;;;2.90;;
66721;SDS011;53633;49.932;10.884;2022-08-03T06:55:48;5.90;;;3.00;;
66721;SDS011;53633;49.932;10.884;2022-08-03T06:58:21;5.67;;;3.10;;
66721;SDS011;53633;49.932;10.884;2022-08-03T07:00:48;5.93;;;3.42;;
66721;SDS011;53633;49.932;10.884;2022-08-03T07:03:18;5.93;;;2.78;;
66721;SDS011;53633;49.932;10.884;2022-08-03T07:05:45;5.07;;;2.85;;
66721;SDS011;53633;49.932;10.884;2022-08-03T07:08:11;5.53;;;2.95;;
66721;SDS011;53633;49.932;10.884;2022-08-03T07:10:38;5.37;;;3.00;;
66721;SDS011;53633;49.932;10.884;2022-08-03T07:13:05;7.40;;;3.05;;
66721;SDS011;53633;49.932;10.884;2022-08-03T07:15:33;7.22;;;2.63;;
66721;SDS011;53633;49.932;10.884;2022-08-03T07:18:21;5.68;;;3.40;;
66721;SDS011;53633;49.932;10.884;2022-08-03T07:20:55;5.70;;;2.58;;
66721;SDS011;53633;49.932;10.884;2022-08-03T07:23:22;6.53;;;3.47;;
66721;SDS011;53633;49.932;10.884;2022-08-03T07:26:16;5.60;;;3.33;;
66721;SDS011;53633;49.932;10.884;2022-08-03T07:28:42;6.53;;;2.90;;
66721;SDS011;53633;49.932;10.884;2022-08-03T07:31:10;7.22;;;3.45;;
66721;SDS011;53633;49.932;10.884;2022-08-03T07:33:37;6.13;;;4.05;;
66721;SDS011;53633;49.932;10.884;2022-08-03T07:36:04;7.50;;;3.90;;
66721;SDS011;53633;49.932;10.884;2022-08-03T07:38:31;5.40;;;3.33;;
66721;SDS011;53633;49.932;10.884;2022-08-03T07:40:57;5.68;;;2.80;;
66721;SDS011;53633;49.932;10.884;2022-08-03T07:43:24;8.73;;;3.40;;
66721;SDS011;53633;49.932;10.884;2022-08-03T07:45:51;6.60;;;3.50;;
66721;SDS011;53633;49.932;10.884;2022-08-03T07:48:19;9.27;;;3.87;;
66721;SDS011;53633;49.932;10.884;2022-08-03T07:50:46;5.90;;;3.13;;
66721;SDS011;53633;49.932;10.884;2022-08-03T07:53:13;6.63;;;3.58;;
66721;SDS011;53633;49.932;10.884;2022-08-03T07:55:40;6.55;;;3.08;;
66721;SDS011;53633;49.932;10.884;2022-08-03T07:58:07;6.75;;;3.42;;
66721;SDS011;53633;49.932;10.884;2022-08-03T08:00:35;6.50;;;3.00;;
66721;SDS011;53633;49.932;10.884;2022-08-03T08:03:02;5.15;;;3.00;;
66721;SDS011;53633;49.932;10.884;2022-08-03T08:05:31;7.80;;;2.55;;
66721;SDS011;53633;49.932;10.884;2022-08-03T08:07:58;8.30;;;3.17;;
66721;SDS011;53633;49.932;10.884;2022-08-03T08:10:24;8.15;;;3.40;;
66721;SDS011;53633;49.932;10.884;2022-08-03T08:12:52;5.70;;;3.17;;
66721;SDS011;53633;49.932;10.884;2022-08-03T08:15:22;7.97;;;3.40;;
66721;SDS011;53633;49.932;10.884;2022-08-03T08:17:55;7.75;;;3.13;;
66721;SDS011;53633;49.932;10.884;2022-08-03T08:20:24;6.70;;;2.90;;
66721;SDS011;53633;49.932;10.884;2022-08-03T08:22:58;6.35;;;3.20;;
66721;SDS011;53633;49.932;10.884;2022-08-03T08:25:28;5.93;;;2.93;;
66721;SDS011;53633;49.932;10.884;2022-08-03T08:27:56;5.70;;;2.92;;
66721;SDS011;53633;49.932;10.884;2022-08-03T08:30:44;6.60;;;2.95;;
66721;SDS011;53633;49.932;10.884;2022-08-03T08:33:11;7.38;;;3.30;;
66721;SDS011;53633;49.932;10.884;2022-08-03T08:35:48;5.63;;;2.53;;
66721;SDS011;53633;49.932;10.884;2022-08-03T08:38:16;6.90;;;3.10;;
66721;SDS011;53633;49.932;10.884;2022-08-03T08:40:42;6.07;;;2.88;;
66721;SDS011;53633;49.932;10.884;2022-08-03T08:43:09;6.47;;;3.42;;
66721;SDS011;53633;49.932;10.884;2022-08-03T08:45:36;6.25;;;2.90;;
66721;SDS011;53633;49.932;10.884;2022-08-03T08:48:03;6.53;;;2.85;;
66721;SDS011;53633;49.932;10.884;2022-08-03T08:50:33;7.50;;;2.43;;
66721;SDS011;53633;49.932;10.884;2022-08-03T08:53:07;7.22;;;2.75;;
66721;SDS011;53633;49.932;10.884;2022-08-03T08:55:45;8.13;;;2.47;;
66721;SDS011;53633;49.932;10.884;2022-08-03T08:58:25;4.32;;;2.20;;
66721;SDS011;53633;49.932;10.884;2022-08-03T09:00:57;6.38;;;2.72;;
66721;SDS011;53633;49.932;10.884;2022-08-03T09:03:24;5.33;;;2.77;;
66721;SDS011;53633;49.932;10.884;2022-08-03T09:05:55;8.35;;;3.15;;
66721;SDS011;53633;49.932;10.884;2022-08-03T09:08:24;6.95;;;2.88;;
66721;SDS011;53633;49.932;10.884;2022-08-03T09:10:52;5.32;;;2.65;;
66721;SDS011;53633;49.932;10.884;2022-08-03T09:13:19;4.40;;;2.25;;
66721;SDS011;53633;49.932;10.884;2022-08-03T09:15:46;5.43;;;2.10;;
66721;SDS011;53633;49.932;10.884;2022-08-03T09:18:27;5.28;;;2.83;;
66721;SDS011;53633;49.932;10.884;2022-08-03T09:21:04;5.53;;;2.72;;
66721;SDS011;53633;49.932;10.884;2022-08-03T09:23:57;5.43;;;2.53;;
66721;SDS011;53633;49.932;10.884;2022-08-03T09:26:32;4.47;;;2.55;;
66721;SDS011;53633;49.932;10.884;2022-08-03T09:29:00;10.63;;;2.77;;
66721;SDS011;53633;49.932;10.884;2022-08-03T09:31:36;6.47;;;2.35;;
66721;SDS011;53633;49.932;10.884;2022-08-03T09:34:09;5.63;;;2.70;;
66721;SDS011;53633;49.932;10.884;2022-08-03T09:36:37;7.63;;;2.72;;
66721;SDS011;53633;49.932;10.884;2022-08-03T09:39:06;5.68;;;3.17;;
66721;SDS011;53633;49.932;10.884;2022-08-03T09:41:35;5.97;;;2.67;;
66721;SDS011;53633;49.932;10.884;2022-08-03T09:44:03;4.00;;;2.15;;
66721;SDS011;53633;49.932;10.884;2022-08-03T09:46:30;5.20;;;2.20;;
66721;SDS011;53633;49.932;10.884;2022-08-03T09:49:09;5.10;;;2.40;;
66721;SDS011;53633;49.932;10.884;2022-08-03T09:51:37;5.18;;;2.53;;
66721;SDS011;53633;49.932;10.884;2022-08-03T09:54:25;5.03;;;2.30;;
66721;SDS011;53633;49.932;10.884;2022-08-03T09:56:53;4.85;;;2.30;;
66721;SDS011;53633;49.932;10.884;2022-08-03T09:59:24;4.85;;;2.30;;
66721;SDS011;53633;49.932;10.884;2022-08-03T10:01:52;11.48;;;2.50;;
66721;SDS011;53633;49.932;10.884;2022-08-03T10:04:22;5.10;;;2.22;;
66721;SDS011;53633;49.932;10.884;2022-08-03T10:07:03;5.13;;;2.20;;
66721;SDS011;53633;49.932;10.884;2022-08-03T10:09:31;4.40;;;2.13;;
66721;SDS011;53633;49.932;10.884;2022-08-03T10:12:07;5.57;;;2.22;;
66721;SDS011;53633;49.932;10.884;2022-08-03T10:14:35;4.20;;;1.88;;
66721;SDS011;53633;49.932;10.884;2022-08-03T10:17:04;5.82;;;2.38;;
66721;SDS011;53633;49.932;10.884;2022-08-03T10:19:31;4.70;;;2.30;;
66721;SDS011;53633;49.932;10.884;2022-08-03T10:22:03;3.97;;;2.20;;
66721;SDS011;53633;49.932;10.884;2022-08-03T10:24:34;3.83;;;1.83;;
66721;SDS011;53633;49.932;10.884;2022-08-03T10:27:05;5.68;;;2.08;;
66721;SDS011;53633;49.932;10.884;2022-08-03T10:29:36;5.80;;;2.33;;
66721;SDS011;53633;49.932;10.884;2022-08-03T10:32:06;3.97;;;1.77;;
66721;SDS011;53633;49.932;10.884;2022-08-03T10:34:39;7.35;;;1.92;;
66721;SDS011;53633;49.932;10.884;2022-08-03T10:37:10;4.18;;;2.00;;
66721;SDS011;53633;49.932;10.884;2022-08-03T10:39:38;6.38;;;2.70;;
66721;SDS011;53633;49.932;10.884;2022-08-03T10:42:11;5.45;;;2.25;;
66721;SDS011;53633;49.932;10.884;2022-08-03T10:44:40;4.10;;;2.03;;
66721;SDS011;53633;49.932;10.884;2022-08-03T10:47:07;6.10;;;2.10;;
66721;SDS011;53633;49.932;10.884;2022-08-03T10:49:35;4.53;;;2.05;;
66721;SDS011;53633;49.932;10.884;2022-08-03T10:52:03;4.63;;;1.88;;
66721;SDS011;53633;49.932;10.884;2022-08-03T10:54:50;4.28;;;2.03;;
66721;SDS011;53633;49.932;10.884;2022-08-03T11:00:14;5.93;;;1.90;;
66721;SDS011;53633;49.932;10.884;2022-08-03T11:05:39;3.80;;;1.90;;
66721;SDS011;53633;49.932;10.884;2022-08-03T11:08:17;3.72;;;1.90;;
66721;SDS011;53633;49.932;10.884;2022-08-03T11:10:52;6.50;;;2.30;;
66721;SDS011;53633;49.932;10.884;2022-08-03T11:13:22;3.95;;;2.20;;
66721;SDS011;53633;49.932;10.884;2022-08-03T11:15:51;5.60;;;2.50;;
66721;SDS011;53633;49.932;10.884;2022-08-03T11:18:27;4.88;;;2.00;;
66721;SDS011;53633;49.932;10.884;2022-08-03T11:20:55;3.17;;;1.73;;
66721;SDS011;53633;49.932;10.884;2022-08-03T11:26:31;5.68;;;2.15;;
66721;SDS011;53633;49.932;10.884;2022-08-03T11:31:54;7.07;;;1.92;;
66721;SDS011;53633;49.932;10.884;2022-08-03T11:34:22;5.72;;;2.20;;
66721;SDS011;53633;49.932;10.884;2022-08-03T11:39:45;5.05;;;1.98;;
66721;SDS011;53633;49.932;10.884;2022-08-03T11:45:07;4.20;;;1.83;;
66721;SDS011;53633;49.932;10.884;2022-08-03T11:47:35;4.78;;;1.90;;
66721;SDS011;53633;49.932;10.884;2022-08-03T11:50:16;5.00;;;2.10;;
66721;SDS011;53633;49.932;10.884;2022-08-03T11:52:44;4.22;;;2.03;;
66721;SDS011;53633;49.932;10.884;2022-08-03T11:55:11;5.07;;;2.20;;
66721;SDS011;53633;49.932;10.884;2022-08-03T11:57:40;3.70;;;2.00;;
66721;SDS011;53633;49.932;10.884;2022-08-03T12:00:31;4.15;;;1.90;;
66721;SDS011;53633;49.932;10.884;2022-08-03T12:02:59;5.87;;;2.10;;
66721;SDS011;53633;49.932;10.884;2022-08-03T12:05:32;4.03;;;1.98;;
66721;SDS011;53633;49.932;10.884;2022-08-03T12:08:04;4.30;;;1.85;;
66721;SDS011;53633;49.932;10.884;2022-08-03T12:10:32;6.88;;;2.50;;
66721;SDS011;53633;49.932;10.884;2022-08-03T12:13:00;3.97;;;2.00;;
66721;SDS011;53633;49.932;10.884;2022-08-03T12:15:29;3.80;;;1.83;;
66721;SDS011;53633;49.932;10.884;2022-08-03T12:17:58;3.35;;;1.80;;
66721;SDS011;53633;49.932;10.884;2022-08-03T12:20:26;3.70;;;1.70;;
66721;SDS011;53633;49.932;10.884;2022-08-03T12:23:01;4.47;;;1.90;;
66721;SDS011;53633;49.932;10.884;2022-08-03T12:25:29;4.75;;;1.95;;
66721;SDS011;53633;49.932;10.884;2022-08-03T12:28:06;4.23;;;1.93;;
66721;SDS011;53633;49.932;10.884;2022-08-03T12:30:59;4.78;;;2.00;;
66721;SDS011;53633;49.932;10.884;2022-08-03T12:33:27;3.20;;;1.50;;
66721;SDS011;53633;49.932;10.884;2022-08-03T12:36:02;4.30;;;1.65;;
66721;SDS011;53633;49.932;10.884;2022-08-03T12:38:31;5.07;;;1.90;;
66721;SDS011;53633;49.932;10.884;2022-08-03T12:41:03;4.03;;;1.90;;
66721;SDS011;53633;49.932;10.884;2022-08-03T12:43:30;3.00;;;1.40;;
66721;SDS011;53633;49.932;10.884;2022-08-03T12:46:13;3.88;;;1.70;;
66721;SDS011;53633;49.932;10.884;2022-08-03T12:49:00;6.47;;;1.83;;
66721;SDS011;53633;49.932;10.884;2022-08-03T12:51:30;4.15;;;1.58;;
66721;SDS011;53633;49.932;10.884;2022-08-03T12:53:58;4.27;;;1.90;;
66721;SDS011;53633;49.932;10.884;2022-08-03T12:56:25;4.90;;;1.88;;
66721;SDS011;53633;49.932;10.884;2022-08-03T12:58:51;4.68;;;1.50;;
66721;SDS011;53633;49.932;10.884;2022-08-03T13:01:20;3.67;;;1.65;;
66721;SDS011;53633;49.932;10.884;2022-08-03T13:03:48;3.45;;;1.80;;
66721;SDS011;53633;49.932;10.884;2022-08-03T13:06:19;4.60;;;1.93;;
66721;SDS011;53633;49.932;10.884;2022-08-03T13:08:48;4.38;;;1.80;;
66721;SDS011;53633;49.932;10.884;2022-08-03T13:11:20;4.65;;;1.95;;
66721;SDS011;53633;49.932;10.884;2022-08-03T13:14:08;4.05;;;1.83;;
66721;SDS011;53633;49.932;10.884;2022-08-03T13:16:43;3.92;;;2.00;;
66721;SDS011;53633;49.932;10.884;2022-08-03T13:19:09;4.03;;;1.77;;
66721;SDS011;53633;49.932;10.884;2022-08-03T13:21:41;4.43;;;1.70;;
66721;SDS011;53633;49.932;10.884;2022-08-03T13:24:28;9.57;;;2.40;;
66721;SDS011;53633;49.932;10.884;2022-08-03T13:26:55;3.53;;;1.85;;
66721;SDS011;53633;49.932;10.884;2022-08-03T13:29:46;5.68;;;1.83;;
66721;SDS011;53633;49.932;10.884;2022-08-03T13:32:14;4.67;;;1.90;;
66721;SDS011;53633;49.932;10.884;2022-08-03T13:34:41;3.72;;;1.90;;
66721;SDS011;53633;49.932;10.884;2022-08-03T13:37:07;4.95;;;2.13;;
66721;SDS011;53633;49.932;10.884;2022-08-03T13:39:35;4.63;;;2.08;;
66721;SDS011;53633;49.932;10.884;2022-08-03T13:42:24;3.53;;;1.85;;
66721;SDS011;53633;49.932;10.884;2022-08-03T13:44:51;4.90;;;2.33;;
66721;SDS011;53633;49.932;10.884;2022-08-03T13:47:19;3.75;;;2.15;;
66721;SDS011;53633;49.932;10.884;2022-08-03T13:49:46;4.35;;;1.63;;
66721;SDS011;53633;49.932;10.884;2022-08-03T13:52:27;5.65;;;1.95;;
66721;SDS011;53633;49.932;10.884;2022-08-03T13:54:54;4.70;;;2.30;;
66721;SDS011;53633;49.932;10.884;2022-08-03T13:57:21;4.80;;;2.23;;
66721;SDS011;53633;49.932;10.884;2022-08-03T14:00:08;4.50;;;2.03;;
66721;SDS011;53633;49.932;10.884;2022-08-03T14:02:37;4.90;;;2.05;;
66721;SDS011;53633;49.932;10.884;2022-08-03T14:05:04;6.93;;;2.22;;
66721;SDS011;53633;49.932;10.884;2022-08-03T14:07:31;4.25;;;2.20;;
66721;SDS011;53633;49.932;10.884;2022-08-03T14:09:57;4.97;;;1.97;;
66721;SDS011;53633;49.932;10.884;2022-08-03T14:12:28;4.20;;;2.03;;
66721;SDS011;53633;49.932;10.884;2022-08-03T14:14:58;5.75;;;2.33;;
66721;SDS011;53633;49.932;10.884;2022-08-03T14:17:27;4.95;;;2.25;;
66721;SDS011;53633;49.932;10.884;2022-08-03T14:20:09;5.20;;;2.38;;
66721;SDS011;53633;49.932;10.884;2022-08-03T14:22:56;3.73;;;2.10;;
66721;SDS011;53633;49.932;10.884;2022-08-03T14:25:23;4.50;;;2.35;;
66721;SDS011;53633;49.932;10.884;2022-08-03T14:27:51;4.55;;;1.63;;
66721;SDS011;53633;49.932;10.884;2022-08-03T14:30:18;6.38;;;2.17;;
66721;SDS011;53633;49.932;10.884;2022-08-03T14:32:45;4.35;;;2.25;;
66721;SDS011;53633;49.932;10.884;2022-08-03T14:35:13;5.17;;;2.27;;
66721;SDS011;53633;49.932;10.884;2022-08-03T14:37:39;4.25;;;2.30;;
66721;SDS011;53633;49.932;10.884;2022-08-03T14:40:06;4.55;;;2.10;;
66721;SDS011;53633;49.932;10.884;2022-08-03T14:42:33;6.40;;;2.08;;
66721;SDS011;53633;49.932;10.884;2022-08-03T14:45:00;4.32;;;2.10;;
66721;SDS011;53633;49.932;10.884;2022-08-03T14:47:34;4.80;;;2.37;;
66721;SDS011;53633;49.932;10.884;2022-08-03T14:50:22;4.68;;;2.28;;
66721;SDS011;53633;49.932;10.884;2022-08-03T14:53:06;4.28;;;2.10;;
66721;SDS011;53633;49.932;10.884;2022-08-03T14:55:32;4.00;;;1.90;;
66721;SDS011;53633;49.932;10.884;2022-08-03T14:58:04;4.97;;;2.20;;
66721;SDS011;53633;49.932;10.884;2022-08-03T15:00:45;4.80;;;2.20;;
66721;SDS011;53633;49.932;10.884;2022-08-03T15:03:11;5.57;;;1.90;;
66721;SDS011;53633;49.932;10.884;2022-08-03T15:05:43;4.47;;;2.05;;
66721;SDS011;53633;49.932;10.884;2022-08-03T15:08:10;4.30;;;2.17;;
66721;SDS011;53633;49.932;10.884;2022-08-03T15:10:36;4.80;;;2.40;;
66721;SDS011;53633;49.932;10.884;2022-08-03T15:13:10;6.37;;;2.20;;
66721;SDS011;53633;49.932;10.884;2022-08-03T15:15:37;5.20;;;2.20;;
66721;SDS011;53633;49.932;10.884;2022-08-03T15:18:04;3.28;;;1.63;;